Terminal Aerodrome Forecast
Issued by NWS

Home | Current Version | Previous Version | Text Only | Print | Product List | Glossary On
Versions: 1 2 3 4 5 6 7 8 9 10 11 12 13 14
000
FTUS43 KBIS 300526
TAFDIK
TAF
KDIK 300526Z 3006/0106 18009KT P6SM SKC
     FM301100 21007KT P6SM SKC
     FM301700 16007KT P6SM SKC
     FM010000 13009KT P6SM SCT100 SCT150=

USA.gov is the U.S. government's official web portal to all federal, state and local government web resources and services.